Time;durP1;ratioP1;P1;durP2;ratioP2;P2;SDS_P1;SDS_P2;PMS_P1;PMS_P2;Temp;Humidity;BMP_temperature;BMP_pressure;BME280_temperature;BME280_humidity;BME280_pressure;Samples;Min_cycle;Max_cycle;Signal;HPM_P1;HPM_P2
2023/04/25 00:00:06;;;;;;;13.38;3.67;;;;;;;5.34;97.62;101068.72;4906825;29;20127;-78
2023/04/25 00:02:37;;;;;;;15.32;3.78;;;;;;;5.31;97.72;101069.59;4902408;29;20063;-78
2023/04/25 00:05:04;;;;;;;17.15;3.83;;;;;;;5.29;97.29;101073.09;4906613;29;20092;-78
2023/04/25 00:07:31;;;;;;;14.38;3.17;;;;;;;5.27;97.29;101077.47;4878601;29;20131;-78
2023/04/25 00:09:56;;;;;;;14.77;4.30;;;;;;;5.23;97.08;101070.44;4903736;29;20036;-78
2023/04/25 00:12:22;;;;;;;14.15;4.05;;;;;;;5.22;97.23;101079.19;4916292;29;20067;-78
2023/04/25 00:14:49;;;;;;;13.95;3.42;;;;;;;5.18;97.28;101076.56;4886118;29;20045;-78
2023/04/25 00:17:16;;;;;;;14.15;4.18;;;;;;;5.15;97.65;101084.44;4899400;29;20040;-80
2023/04/25 00:19:44;;;;;;;17.33;3.95;;;;;;;5.12;97.96;101087.03;4890638;29;20024;-78
2023/04/25 00:22:10;;;;;;;14.68;3.90;;;;;;;5.10;97.87;101086.16;4899567;29;20068;-78
2023/04/25 00:24:36;;;;;;;11.85;3.38;;;;;;;5.10;97.54;101101.91;4916117;29;20032;-78
2023/04/25 00:27:01;;;;;;;17.35;4.10;;;;;;;5.07;97.70;101099.28;4898955;29;20039;-78
2023/04/25 00:29:27;;;;;;;13.93;4.00;;;;;;;5.05;97.89;101102.75;4899121;29;20440;-78
2023/04/25 00:31:52;;;;;;;13.32;3.50;;;;;;;5.02;97.60;101100.09;4914327;29;20403;-78
2023/04/25 00:34:18;;;;;;;17.77;4.47;;;;;;;5.01;98.12;101100.97;4887468;29;20046;-78
2023/04/25 00:36:43;;;;;;;9.73;3.47;;;;;;;4.95;98.20;101089.59;4899198;29;20052;-78
2023/04/25 00:39:09;;;;;;;11.13;3.67;;;;;;;4.98;98.08;101101.84;4898811;29;20031;-78
2023/04/25 00:41:35;;;;;;;16.42;3.53;;;;;;;4.95;98.04;101096.59;4898765;29;20048;-78
2023/04/25 00:44:04;;;;;;;17.65;3.78;;;;;;;4.91;97.77;101085.19;4895285;29;20444;-78
2023/04/25 00:46:31;;;;;;;13.07;3.78;;;;;;;4.93;97.68;101090.44;4906543;29;20424;-78
2023/04/25 00:48:58;;;;;;;19.00;4.35;;;;;;;4.90;97.86;101095.69;4906670;29;20035;-78
2023/04/25 00:51:26;;;;;;;14.48;3.25;;;;;;;4.83;97.93;101083.41;4903835;29;20393;-80
2023/04/25 00:53:53;;;;;;;19.45;4.07;;;;;;;4.81;98.24;101083.38;4898996;29;20087;-77
2023/04/25 00:56:19;;;;;;;14.77;3.65;;;;;;;4.78;99.06;101080.75;4892397;29;20390;-78
2023/04/25 00:58:45;;;;;;;14.10;3.47;;;;;;;4.81;98.71;101093.88;4861418;29;20092;-78
2023/04/25 01:01:12;;;;;;;14.13;4.00;;;;;;;4.78;98.72;101091.25;4877173;29;20040;-77
2023/04/25 01:03:42;;;;;;;15.70;3.70;;;;;;;4.80;98.92;101093.84;4879938;29;20532;-77
2023/04/25 01:06:09;;;;;;;18.17;4.03;;;;;;;4.71;98.18;101092.94;4910162;29;20036;-77
2023/04/25 01:08:37;;;;;;;14.23;3.50;;;;;;;4.73;98.45;101095.59;4889459;29;20061;-77
2023/04/25 01:11:02;;;;;;;18.13;4.55;;;;;;;4.70;98.72;101095.56;4915799;29;20432;-77
2023/04/25 01:13:28;;;;;;;11.85;3.67;;;;;;;4.68;99.16;101097.31;4902480;29;20102;-77
2023/04/25 01:15:54;;;;;;;19.83;4.75;;;;;;;4.65;99.22;101092.00;4906192;29;20092;-77
2023/04/25 01:18:20;;;;;;;14.52;3.70;;;;;;;4.60;98.71;101091.09;4895376;29;20032;-77
2023/04/25 01:20:48;;;;;;;13.30;3.67;;;;;;;4.62;99.29;101112.97;4890435;29;20481;-77
2023/04/25 01:23:14;;;;;;;16.40;4.38;;;;;;;4.63;99.67;101107.75;4902333;29;20047;-77
2023/04/25 01:25:40;;;;;;;15.82;4.65;;;;;;;4.65;99.83;101108.66;4902442;29;20036;-77
2023/04/25 01:28:06;;;;;;;22.83;4.40;;;;;;;4.66;100.00;101109.53;4920118;29;20031;-78
2023/04/25 01:30:32;;;;;;;17.65;4.20;;;;;;;4.65;100.00;101120.88;4902684;29;20044;-79
2023/04/25 01:32:59;;;;;;;14.48;4.07;;;;;;;4.62;100.00;101111.22;4923318;29;20455;-78
2023/04/25 01:35:25;;;;;;;11.57;3.42;;;;;;;4.68;100.00;101113.03;4922137;29;20046;-78
2023/04/25 01:37:53;;;;;;;17.33;4.38;;;;;;;4.65;100.00;101106.03;4887508;29;20479;-78
2023/04/25 01:40:20;;;;;;;18.83;4.97;;;;;;;4.69;100.00;101117.41;4924318;29;20052;-78
2023/04/25 01:42:46;;;;;;;24.17;5.13;;;;;;;4.64;100.00;101100.75;4901649;29;20050;-79
2023/04/25 01:45:12;;;;;;;29.48;5.72;;;;;;;4.67;100.00;101112.16;4896144;29;20440;-78
2023/04/25 01:47:43;;;;;;;16.65;4.45;;;;;;;4.70;100.00;101114.81;4910357;29;20039;-78
2023/04/25 01:50:09;;;;;;;16.10;4.32;;;;;;;4.70;100.00;101111.31;4902102;29;20047;-78
2023/04/25 01:52:37;;;;;;;19.35;4.47;;;;;;;4.68;100.00;101107.78;4901902;29;20038;-78
2023/04/25 01:55:03;;;;;;;13.75;4.38;;;;;;;4.67;100.00;101114.78;4901936;29;20048;-79
2023/04/25 01:57:32;;;;;;;11.80;3.63;;;;;;;4.66;100.00;101120.88;4902006;29;20099;-78
2023/04/25 02:00:02;;;;;;;23.77;5.32;;;;;;;4.63;99.83;101123.50;4901719;29;20039;-79
2023/04/25 02:02:40;;;;;;;14.50;3.85;;;;;;;4.64;99.63;101127.88;4905528;29;20508;-79
2023/04/25 02:05:15;;;;;;;22.30;4.43;;;;;;;4.62;99.23;101124.34;4893271;29;20123;-79
2023/04/25 02:07:42;;;;;;;16.25;4.35;;;;;;;4.62;99.47;101133.97;4902119;29;20037;-79
2023/04/25 02:10:08;;;;;;;17.27;4.78;;;;;;;4.60;99.49;101139.22;4909811;29;20040;-79
2023/04/25 02:12:39;;;;;;;24.10;5.07;;;;;;;4.61;98.70;101134.84;4907783;29;20067;-79
2023/04/25 02:15:18;;;;;;;17.15;4.75;;;;;;;4.58;98.75;101127.84;4902134;29;20036;-79
2023/04/25 02:17:52;;;;;;;18.90;4.68;;;;;;;4.59;98.38;101134.81;4878537;29;20036;-79
2023/04/25 02:20:21;;;;;;;22.77;4.45;;;;;;;4.58;98.75;101138.31;4887987;29;20139;-79
2023/04/25 02:22:46;;;;;;;20.60;4.43;;;;;;;4.60;98.77;101141.84;4886153;29;20039;-79
2023/04/25 02:25:16;;;;;;;16.15;4.53;;;;;;;4.58;98.49;101138.31;4902086;29;20420;-79
2023/04/25 02:27:42;;;;;;;11.88;3.95;;;;;;;4.53;98.38;101134.78;4886340;29;20119;-79
2023/04/25 02:30:08;;;;;;;18.95;4.90;;;;;;;4.52;98.39;101141.78;4917323;29;20122;-79
2023/04/25 02:32:34;;;;;;;22.80;4.72;;;;;;;4.50;97.97;101140.00;4887731;29;20437;-78
2023/04/25 02:35:03;;;;;;;18.15;4.35;;;;;;;4.44;98.07;101135.59;4901166;29;20064;-78
2023/04/25 02:37:33;;;;;;;25.15;4.55;;;;;;;4.41;97.20;101145.19;4916694;29;20032;-78
2023/04/25 02:39:59;;;;;;;25.00;4.53;;;;;;;4.35;97.83;101143.38;4904701;29;20048;-78
2023/04/25 02:42:26;;;;;;;15.70;4.32;;;;;;;4.30;97.30;101145.06;4916969;29;20222;-78
2023/04/25 02:44:52;;;;;;;15.93;4.10;;;;;;;4.26;97.93;101141.56;4916555;29;20054;-78
2023/04/25 02:47:17;;;;;;;14.82;4.45;;;;;;;4.22;98.17;101137.16;4907291;29;20429;-78
2023/04/25 02:49:43;;;;;;;20.83;4.03;;;;;;;4.21;97.56;101139.78;4894530;29;20044;-78
2023/04/25 02:52:12;;;;;;;21.50;4.60;;;;;;;4.14;97.39;101136.22;4932150;29;20024;-78
2023/04/25 02:54:39;;;;;;;20.45;4.90;;;;;;;4.11;96.85;101145.81;4916554;29;20040;-78
2023/04/25 02:57:04;;;;;;;16.58;4.28;;;;;;;4.08;96.69;101142.28;4911335;29;20052;-78
2023/04/25 02:59:35;;;;;;;17.27;4.63;;;;;;;4.09;97.38;101151.88;4909037;29;20044;-78
2023/04/25 03:02:01;;;;;;;16.40;4.68;;;;;;;4.10;97.67;101152.75;4905032;29;20047;-78
2023/04/25 03:04:27;;;;;;;19.10;4.97;;;;;;;4.11;97.83;101148.41;4906871;29;20032;-78
2023/04/25 03:06:53;;;;;;;22.10;4.45;;;;;;;4.12;97.77;101147.53;4914537;29;20520;-78
2023/04/25 03:09:20;;;;;;;17.77;4.00;;;;;;;4.07;97.74;101139.63;4897332;29;20020;-78
2023/04/25 03:11:48;;;;;;;14.93;3.95;;;;;;;4.08;98.13;101138.78;4911454;29;20459;-78
2023/04/25 03:14:14;;;;;;;13.10;4.30;;;;;;;4.08;98.32;101144.03;4917499;29;20115;-78
2023/04/25 03:16:40;;;;;;;17.48;4.57;;;;;;;4.08;98.08;101142.28;4931861;29;20048;-78
2023/04/25 03:19:05;;;;;;;14.93;4.65;;;;;;;4.04;98.52;101142.22;4896133;29;20437;-78
2023/04/25 03:21:33;;;;;;;14.23;4.10;;;;;;;4.09;98.71;101144.03;4922920;29;20044;-78
2023/04/25 03:24:00;;;;;;;19.88;5.15;;;;;;;4.11;99.17;101151.91;4931883;29;20164;-77
2023/04/25 03:26:26;;;;;;;17.75;4.75;;;;;;;4.12;98.21;101144.91;4924003;28;20045;-77
2023/04/25 03:28:51;;;;;;;18.58;4.85;;;;;;;4.12;98.75;101148.41;4911471;29;20119;-78
2023/04/25 03:31:16;;;;;;;20.30;4.60;;;;;;;4.14;98.89;101153.69;4931526;29;20036;-77
2023/04/25 03:33:42;;;;;;;18.92;4.60;;;;;;;4.15;99.44;101148.44;4904616;29;20061;-77
2023/04/25 03:36:08;;;;;;;20.05;4.43;;;;;;;4.15;98.85;101151.06;4909958;29;20476;-77
2023/04/25 03:38:33;;;;;;;16.30;4.35;;;;;;;4.14;99.05;101145.81;4906234;29;20042;-78
2023/04/25 03:41:01;;;;;;;19.42;5.05;;;;;;;4.15;99.14;101148.44;4931017;29;20562;-78
2023/04/25 03:43:37;;;;;;;17.38;4.43;;;;;;;4.14;99.19;101148.44;4916193;29;20460;-78
2023/04/25 03:46:08;;;;;;;20.73;5.15;;;;;;;4.17;98.85;101144.09;4913627;29;20047;-78
2023/04/25 03:48:34;;;;;;;21.45;4.60;;;;;;;4.19;99.16;101150.22;4881009;29;20047;-78
2023/04/25 03:51:00;;;;;;;19.52;5.05;;;;;;;4.18;99.21;101151.13;4896746;29;20036;-78
2023/04/25 03:53:26;;;;;;;19.35;4.32;;;;;;;4.20;99.20;101153.72;4915578;29;20040;-78
2023/04/25 03:56:12;;;;;;;16.45;4.38;;;;;;;4.20;98.71;101146.72;4917575;29;20036;-78
2023/04/25 03:58:40;;;;;;;20.98;4.18;;;;;;;4.20;99.00;101156.34;4915235;29;20040;-78
2023/04/25 04:01:07;;;;;;;20.95;4.38;;;;;;;4.19;99.04;101157.22;4909770;29;20059;-78
2023/04/25 04:03:36;;;;;;;15.48;4.32;;;;;;;4.18;99.20;101158.97;4917602;29;20083;-78
2023/04/25 04:06:06;;;;;;;19.65;4.68;;;;;;;4.17;99.42;101158.94;4931015;28;20115;-78
2023/04/25 04:08:35;;;;;;;22.15;4.75;;;;;;;4.14;99.59;101167.66;4912881;28;20044;-77
2023/04/25 04:11:00;;;;;;;13.40;4.22;;;;;;;4.12;99.51;101174.63;4906433;29;20103;-77
2023/04/25 04:13:27;;;;;;;17.83;4.47;;;;;;;4.12;99.66;101174.63;4930852;28;20040;-77
2023/04/25 04:15:53;;;;;;;21.00;4.57;;;;;;;4.11;99.67;101175.50;4930876;28;20056;-77
2023/04/25 04:18:19;;;;;;;16.40;3.78;;;;;;;4.13;99.61;101181.66;4929834;29;20036;-77
2023/04/25 04:20:44;;;;;;;19.10;4.88;;;;;;;4.14;99.34;101179.91;4902488;29;20036;-77
2023/04/25 04:23:12;;;;;;;30.00;5.03;;;;;;;4.12;99.50;101179.88;4915161;29;20075;-77
2023/04/25 04:25:38;;;;;;;13.93;4.03;;;;;;;4.13;99.40;101184.25;4914744;29;20035;-78
2023/04/25 04:28:18;;;;;;;23.48;5.20;;;;;;;4.15;99.28;101186.88;4904825;29;20488;-78
2023/04/25 04:31:00;;;;;;;16.52;4.47;;;;;;;4.09;99.30;101172.84;4914779;29;20064;-78
2023/04/25 04:33:27;;;;;;;20.52;5.05;;;;;;;4.13;99.37;101186.88;4890049;29;20033;-77
2023/04/25 04:35:58;;;;;;;17.55;4.70;;;;;;;4.13;98.67;101184.25;4896412;29;20033;-77
2023/04/25 04:38:25;;;;;;;15.63;4.63;;;;;;;4.15;98.85;101190.38;4930862;28;20471;-77
2023/04/25 04:40:53;;;;;;;14.95;4.10;;;;;;;4.15;98.49;101189.50;4914147;29;20060;-77
2023/04/25 04:43:29;;;;;;;16.92;4.40;;;;;;;4.15;98.67;101192.13;4916299;29;20076;-78
2023/04/25 04:46:14;;;;;;;21.13;4.57;;;;;;;4.18;98.85;101200.00;4903088;29;20036;-78
2023/04/25 04:48:58;;;;;;;13.43;4.25;;;;;;;4.20;98.92;101198.28;4900151;29;20202;-78
2023/04/25 04:51:46;;;;;;;20.17;5.22;;;;;;;4.20;98.59;101198.28;4916106;29;20095;-78
2023/04/25 04:54:38;;;;;;;17.98;5.00;;;;;;;4.22;98.78;101200.06;4907311;29;20048;-78
2023/04/25 04:57:23;;;;;;;20.27;4.82;;;;;;;4.22;98.64;101205.31;4911529;29;20048;-78
2023/04/25 05:00:10;;;;;;;19.33;5.15;;;;;;;4.22;99.18;101207.06;4900778;29;20075;-78
2023/04/25 05:03:08;;;;;;;16.42;4.45;;;;;;;4.28;98.62;101215.00;4898243;29;20127;-77
2023/04/25 05:06:00;;;;;;;19.05;5.28;;;;;;;4.31;98.69;101220.25;4902459;29;20068;-78
2023/04/25 05:08:36;;;;;;;29.80;5.97;;;;;;;4.34;99.03;101215.03;4904009;29;20543;-76
2023/04/25 05:11:23;;;;;;;18.05;4.57;;;;;;;4.33;98.73;101221.16;4915062;29;20055;-76
2023/04/25 05:14:09;;;;;;;20.52;5.00;;;;;;;4.40;98.75;101229.94;4915251;29;20051;-76
2023/04/25 05:16:48;;;;;;;18.13;3.88;;;;;;;4.40;98.21;101227.31;4913815;29;20060;-77
2023/04/25 05:19:21;;;;;;;18.27;4.45;;;;;;;4.45;98.27;101238.72;4924016;29;20068;-77
2023/04/25 05:21:53;;;;;;;25.38;4.90;;;;;;;4.48;98.68;101247.53;4912237;29;20060;-77
2023/04/25 05:24:34;;;;;;;18.92;4.78;;;;;;;4.51;98.23;101247.53;4900299;29;20048;-77
2023/04/25 05:26:59;;;;;;;15.70;4.10;;;;;;;4.51;98.39;101247.53;4915542;29;20040;-77
2023/04/25 05:29:44;;;;;;;19.98;4.55;;;;;;;4.61;98.38;101251.13;4902096;29;20062;-77
2023/04/25 05:32:24;;;;;;;13.68;4.28;;;;;;;4.67;98.52;101261.69;4914133;29;20048;-77
2023/04/25 05:34:51;;;;;;;17.70;4.50;;;;;;;4.72;98.18;101262.63;4923081;29;20048;-77
2023/04/25 05:37:39;;;;;;;18.85;4.35;;;;;;;4.79;97.88;101260.03;4910760;29;20032;-77
2023/04/25 05:40:10;;;;;;;22.65;4.55;;;;;;;4.84;97.93;101266.19;4929741;29;20056;-77
2023/04/25 05:42:54;;;;;;;15.40;4.13;;;;;;;4.87;97.79;101259.25;4914533;29;20140;-77
2023/04/25 05:45:46;;;;;;;27.58;4.55;;;;;;;4.92;97.45;101259.25;4903460;29;20044;-77
2023/04/25 05:48:30;;;;;;;9.85;3.38;;;;;;;5.03;97.87;101260.22;4902530;29;20336;-77
2023/04/25 05:51:05;;;;;;;23.13;4.78;;;;;;;5.13;96.50;101264.69;4929730;29;20036;-77
2023/04/25 05:53:53;;;;;;;20.77;4.72;;;;;;;5.25;95.67;101276.16;4914481;29;20448;-77
2023/04/25 05:56:19;;;;;;;19.00;4.10;;;;;;;5.35;95.27;101285.84;4916198;28;20132;-77
2023/04/25 05:58:47;;;;;;;14.35;3.53;;;;;;;5.38;93.90;101278.84;4929601;29;20119;-77
2023/04/25 06:01:13;;;;;;;10.70;4.00;;;;;;;5.38;92.43;101284.09;4923266;29;20081;-77
2023/04/25 06:03:38;;;;;;;20.92;4.22;;;;;;;5.36;92.44;101285.84;4896091;29;20567;-77
2023/04/25 06:06:04;;;;;;;12.50;4.63;;;;;;;5.34;92.99;101295.47;4922535;29;20040;-77
2023/04/25 06:08:30;;;;;;;14.80;4.32;;;;;;;5.36;91.49;101292.84;4906497;29;20055;-77
2023/04/25 06:10:56;;;;;;;19.15;4.22;;;;;;;5.38;92.11;101291.97;4901493;29;20405;-77
2023/04/25 06:13:22;;;;;;;19.63;4.60;;;;;;;5.43;91.04;101288.53;4917131;29;20035;-77
2023/04/25 06:15:48;;;;;;;13.23;3.60;;;;;;;5.48;89.80;101290.28;4909343;29;20051;-77
2023/04/25 06:18:14;;;;;;;15.00;3.13;;;;;;;5.54;88.43;101297.34;4898327;29;20032;-77
2023/04/25 06:20:39;;;;;;;11.73;3.63;;;;;;;5.57;88.44;101294.75;4901979;29;20052;-77
2023/04/25 06:23:05;;;;;;;18.20;2.72;;;;;;;5.58;86.76;101296.50;4909887;29;20063;-77
2023/04/25 06:26:05;;;;;;;17.77;3.67;;;;;;;5.63;87.57;101301.78;4896552;29;20452;-77
2023/04/25 06:28:33;;;;;;;17.35;3.88;;;;;;;5.69;87.99;101296.56;4916933;29;20039;-77
2023/04/25 06:30:59;;;;;;;12.20;2.55;;;;;;;5.73;85.49;101301.81;4903503;29;20032;-77
2023/04/25 06:33:24;;;;;;;14.93;3.42;;;;;;;5.78;86.68;101294.84;4908079;29;20564;-77
2023/04/25 06:35:51;;;;;;;14.27;3.17;;;;;;;5.84;85.53;101295.78;4912330;29;20091;-77
2023/04/25 06:38:21;;;;;;;10.10;3.20;;;;;;;5.85;82.48;101311.53;4932650;29;20046;-77
2023/04/25 06:40:50;;;;;;;13.35;2.67;;;;;;;5.89;83.93;101310.69;4915916;29;20084;-77
2023/04/25 06:43:16;;;;;;;13.55;2.60;;;;;;;5.95;82.19;101312.47;4919572;29;20074;-77
2023/04/25 06:45:56;;;;;;;12.07;2.85;;;;;;;6.00;82.63;101313.38;4919458;29;20045;-78
2023/04/25 06:48:24;;;;;;;12.48;2.55;;;;;;;6.06;82.97;101320.41;4908233;29;20039;-77
2023/04/25 06:50:51;;;;;;;14.82;3.50;;;;;;;6.11;82.02;101308.16;4916504;29;20424;-78
2023/04/25 06:53:18;;;;;;;10.15;2.45;;;;;;;6.17;82.34;101316.97;4932444;29;20159;-78
2023/04/25 06:55:46;;;;;;;10.35;2.90;;;;;;;6.17;79.24;101318.72;4916357;29;20032;-78
2023/04/25 06:58:22;;;;;;;9.35;2.50;;;;;;;6.25;80.06;101317.84;4917643;29;20040;-78
2023/04/25 07:00:57;;;;;;;17.35;3.53;;;;;;;6.33;80.99;101327.53;4918817;29;20100;-78
2023/04/25 07:03:25;;;;;;;14.30;2.70;;;;;;;6.42;80.49;101330.19;4913015;29;20408;-78
2023/04/25 07:05:54;;;;;;;12.38;2.40;;;;;;;6.51;78.97;101324.09;4923427;29;20028;-78
2023/04/25 07:08:21;;;;;;;9.18;2.70;;;;;;;6.60;78.66;101334.63;4905200;29;20024;-78
2023/04/25 07:10:46;;;;;;;7.50;2.22;;;;;;;6.75;80.50;101339.03;4907656;29;20052;-77
2023/04/25 07:13:15;;;;;;;9.18;2.60;;;;;;;6.83;79.24;101329.44;4912683;29;20067;-77
2023/04/25 07:15:43;;;;;;;7.75;2.38;;;;;;;6.89;74.08;101338.19;4916352;29;20042;-78
2023/04/25 07:18:14;;;;;;;12.68;2.92;;;;;;;6.94;74.66;101338.19;4899633;29;20052;-77
2023/04/25 07:20:42;;;;;;;9.23;2.37;;;;;;;6.87;73.17;101333.78;4905651;29;20108;-78
2023/04/25 07:23:08;;;;;;;11.45;2.55;;;;;;;6.88;74.97;101335.56;4915965;29;20103;-77
2023/04/25 07:25:34;;;;;;;12.88;2.70;;;;;;;6.96;75.14;101344.34;4912184;29;20036;-79
2023/04/25 07:28:00;;;;;;;7.50;2.40;;;;;;;6.99;75.83;101344.34;4915958;29;20024;-80
2023/04/25 07:30:27;;;;;;;10.73;2.20;;;;;;;7.14;74.40;101361.91;4915940;29;20036;-79
2023/04/25 07:32:53;;;;;;;6.95;2.22;;;;;;;7.24;74.77;101365.44;4911083;29;20503;-79
2023/04/25 07:35:19;;;;;;;11.45;2.70;;;;;;;7.34;71.69;101361.91;4908705;29;20119;-80
2023/04/25 07:37:45;;;;;;;7.78;2.30;;;;;;;7.38;71.01;101373.34;4915953;29;20075;-79
2023/04/25 07:40:17;;;;;;;15.10;2.45;;;;;;;7.36;70.92;101370.69;4915691;29;20469;-79
2023/04/25 07:42:46;;;;;;;9.88;2.17;;;;;;;7.36;71.04;101375.09;4902627;29;20146;-79
2023/04/25 07:45:16;;;;;;;9.20;2.83;;;;;;;7.41;70.26;101376.84;4900476;29;20032;-79
2023/04/25 07:47:42;;;;;;;8.88;2.53;;;;;;;7.44;71.02;101375.97;4898982;29;20053;-79
2023/04/25 07:50:08;;;;;;;13.80;2.45;;;;;;;7.47;71.52;101382.13;4924638;29;20044;-79
2023/04/25 07:52:34;;;;;;;7.85;2.53;;;;;;;7.50;72.09;101374.22;4909121;29;20036;-80
2023/04/25 07:55:12;;;;;;;13.23;2.72;;;;;;;7.63;74.26;101375.06;4931188;29;20526;-80
2023/04/25 07:57:52;;;;;;;11.48;2.33;;;;;;;7.79;73.02;101385.59;4915401;29;20051;-79
2023/04/25 08:00:19;;;;;;;10.05;2.72;;;;;;;7.86;72.32;101384.69;4931386;29;20096;-79
2023/04/25 08:02:51;;;;;;;12.80;2.80;;;;;;;7.90;72.38;101379.44;4895980;29;20128;-79
2023/04/25 08:05:17;;;;;;;16.20;3.00;;;;;;;7.96;71.27;101391.72;4899334;29;20059;-79
2023/04/25 08:07:47;;;;;;;13.63;2.65;;;;;;;8.02;72.93;101393.47;4905896;29;20040;-79
2023/04/25 08:10:13;;;;;;;9.57;2.38;;;;;;;8.00;71.57;101398.75;4914017;29;20472;-79
2023/04/25 08:12:38;;;;;;;16.77;2.67;;;;;;;7.80;70.46;101406.69;4905724;29;20060;-79
2023/04/25 08:15:07;;;;;;;8.55;2.42;;;;;;;7.75;71.19;101413.72;4912109;29;20396;-80
2023/04/25 08:17:35;;;;;;;12.38;2.75;;;;;;;7.77;72.08;101413.75;4899867;29;20136;-79
2023/04/25 08:20:01;;;;;;;10.85;2.65;;;;;;;7.84;72.65;101407.56;4917176;29;20036;-79
2023/04/25 08:22:30;;;;;;;11.27;3.13;;;;;;;7.85;70.15;101415.47;4915538;29;20399;-79
2023/04/25 08:25:14;;;;;;;9.88;2.67;;;;;;;7.89;70.51;101419.88;4914243;29;20119;-79
2023/04/25 08:27:40;;;;;;;14.25;2.83;;;;;;;7.86;69.88;101413.72;4915783;29;20039;-79
2023/04/25 08:30:08;;;;;;;11.02;2.83;;;;;;;7.98;71.77;101418.97;4930649;29;20042;-79
2023/04/25 08:32:34;;;;;;;9.25;2.25;;;;;;;8.01;69.18;101416.34;4897166;29;20036;-79
2023/04/25 08:35:21;;;;;;;15.85;3.75;;;;;;;8.17;69.89;101423.31;4896151;29;20061;-79
2023/04/25 08:37:48;;;;;;;11.88;2.58;;;;;;;8.43;69.01;101421.50;4925120;29;20049;-79
2023/04/25 08:40:15;;;;;;;7.90;2.25;;;;;;;8.69;66.18;101422.28;4911850;29;20076;-79
2023/04/25 08:43:03;;;;;;;9.77;2.22;;;;;;;8.80;65.61;101424.84;4914113;29;20127;-77
2023/04/25 08:45:32;;;;;;;11.45;2.28;;;;;;;8.76;66.51;101431.06;4905851;29;20134;-78
2023/04/25 08:47:58;;;;;;;8.85;2.70;;;;;;;8.82;63.56;101436.31;4897627;29;20032;-78
2023/04/25 08:50:26;;;;;;;11.38;2.70;;;;;;;8.67;62.34;101439.91;4930398;29;20032;-78
2023/04/25 08:52:53;;;;;;;14.68;2.97;;;;;;;8.77;66.43;101446.00;4914707;29;20035;-78
2023/04/25 08:55:21;;;;;;;14.15;2.75;;;;;;;8.87;65.91;101447.72;4914274;29;20115;-78
2023/04/25 08:57:50;;;;;;;7.70;2.05;;;;;;;8.84;64.41;101447.75;4914514;29;20676;-78
2023/04/25 09:00:16;;;;;;;9.32;2.60;;;;;;;8.88;65.89;101464.44;4930027;29;20051;-78
2023/04/25 09:02:44;;;;;;;20.17;2.85;;;;;;;8.86;64.98;101467.09;4905735;29;20068;-78
2023/04/25 09:05:13;;;;;;;10.75;2.55;;;;;;;8.87;65.57;101471.50;4914524;29;20036;-78
2023/04/25 09:07:40;;;;;;;15.40;2.90;;;;;;;8.97;64.99;101475.84;4905753;29;20036;-78
2023/04/25 09:10:06;;;;;;;9.15;1.95;;;;;;;9.09;62.13;101480.19;4908780;29;20079;-78
2023/04/25 09:12:35;;;;;;;13.48;2.20;;;;;;;9.13;59.95;101476.66;4920631;29;20044;-78
2023/04/25 09:15:05;;;;;;;7.05;1.60;;;;;;;9.15;60.15;101473.97;4912744;29;20036;-78
2023/04/25 09:17:45;;;;;;;11.15;2.50;;;;;;;9.20;62.01;101488.94;4906594;29;20056;-78
2023/04/25 09:20:13;;;;;;;9.07;2.25;;;;;;;9.23;63.04;101483.63;4905064;29;20049;-78
2023/04/25 09:22:39;;;;;;;6.55;2.03;;;;;;;9.21;62.33;101487.16;4914438;29;20032;-78
2023/04/25 09:25:09;;;;;;;9.40;2.20;;;;;;;9.03;61.95;101501.38;4898343;29;20044;-78
2023/04/25 09:27:35;;;;;;;13.50;2.67;;;;;;;8.98;64.77;101501.38;4911119;29;20025;-78
2023/04/25 09:30:09;;;;;;;11.90;2.63;;;;;;;8.81;64.84;101511.16;4905151;29;20357;-78
2023/04/25 09:32:54;;;;;;;9.95;2.30;;;;;;;8.78;65.97;101524.38;4896178;29;20040;-78
2023/04/25 09:35:25;;;;;;;6.82;1.77;;;;;;;8.74;68.44;101520.84;4905784;29;20040;-78
2023/04/25 09:37:51;;;;;;;10.30;2.17;;;;;;;8.78;68.67;101519.09;4910410;29;20040;-78
2023/04/25 09:40:47;;;;;;;5.75;2.17;;;;;;;9.13;67.91;101516.28;4920176;29;20143;-78
2023/04/25 09:43:24;;;;;;;12.85;2.60;;;;;;;9.56;65.44;101508.09;4933223;28;20036;-78
2023/04/25 09:45:53;;;;;;;9.23;1.70;;;;;;;9.85;60.90;101515.81;4917773;29;20036;-78
2023/04/25 09:48:20;;;;;;;6.03;1.80;;;;;;;10.09;59.93;101514.72;4896379;29;20028;-78
2023/04/25 09:51:09;;;;;;;12.93;2.63;;;;;;;10.01;58.15;101507.72;4917813;29;20546;-77
2023/04/25 09:53:37;;;;;;;7.80;2.35;;;;;;;10.18;58.55;101507.59;4917798;29;20748;-77
2023/04/25 09:56:36;;;;;;;12.10;2.22;;;;;;;10.40;55.78;101500.34;4917367;29;20491;-78
2023/04/25 09:59:05;;;;;;;6.53;1.75;;;;;;;10.51;52.88;101509.06;4923711;29;20044;-78
2023/04/25 10:01:34;;;;;;;7.65;1.63;;;;;;;10.44;51.98;101510.88;4907712;29;20095;-77
2023/04/25 10:04:11;;;;;;;6.20;1.80;;;;;;;10.43;53.88;101508.25;4914626;29;20043;-78
2023/04/25 10:06:57;;;;;;;12.18;1.90;;;;;;;10.60;53.64;101514.22;4913892;29;20040;-78
2023/04/25 10:09:26;;;;;;;6.15;1.75;;;;;;;10.75;54.64;101511.41;4910486;29;20036;-78
2023/04/25 10:11:52;;;;;;;6.38;1.70;;;;;;;10.88;53.33;101513.91;4918521;29;20028;-77
2023/04/25 10:14:18;;;;;;;7.25;1.90;;;;;;;10.95;53.12;101500.59;4907958;29;20037;-77
2023/04/25 10:16:45;;;;;;;6.20;1.60;;;;;;;11.05;50.72;101509.25;4914485;29;20036;-78
2023/04/25 10:19:11;;;;;;;6.97;1.90;;;;;;;10.88;50.24;101516.53;4913616;29;20044;-78
2023/04/25 10:21:48;;;;;;;6.30;1.58;;;;;;;11.00;52.10;101512.88;4899595;29;20034;-78
2023/04/25 10:24:16;;;;;;;9.15;1.65;;;;;;;11.30;52.20;101508.94;4910954;29;20493;-78
2023/04/25 10:26:42;;;;;;;4.85;1.70;;;;;;;11.63;50.57;101507.56;4901881;29;20041;-78
2023/04/25 10:29:15;;;;;;;5.88;2.22;;;;;;;11.59;49.73;101506.72;4914599;29;20047;-78
2023/04/25 10:31:45;;;;;;;8.23;2.30;;;;;;;11.43;49.32;101496.41;4916782;29;20379;-77
2023/04/25 10:34:11;;;;;;;11.00;2.10;;;;;;;11.55;49.04;101501.50;4917048;29;20043;-77
2023/04/25 10:36:37;;;;;;;5.88;1.98;;;;;;;11.42;47.64;101508.75;4918093;29;20046;-77
2023/04/25 10:39:08;;;;;;;6.53;1.88;;;;;;;11.12;50.20;101508.28;4918026;29;20519;-77
2023/04/25 10:41:47;;;;;;;10.32;2.15;;;;;;;10.89;51.53;101524.50;4891200;29;20519;-78
2023/04/25 10:44:13;;;;;;;9.90;2.13;;;;;;;10.72;50.68;101526.47;4917825;29;20040;-77
2023/04/25 10:46:39;;;;;;;10.13;2.05;;;;;;;10.47;52.17;101529.38;4910678;29;20017;-77
2023/04/25 10:49:05;;;;;;;9.10;2.13;;;;;;;10.16;56.47;101551.72;4909468;29;20511;-78
2023/04/25 10:51:36;;;;;;;9.40;2.13;;;;;;;9.80;58.87;101551.13;4913965;29;20103;-78
2023/04/25 10:54:07;;;;;;;10.38;2.10;;;;;;;9.42;62.34;101561.06;4909268;29;20084;-76
2023/04/25 10:56:38;;;;;;;7.40;2.13;;;;;;;9.21;64.56;101564.69;4917446;29;20531;-77
2023/04/25 10:59:14;;;;;;;12.25;2.58;;;;;;;9.15;67.23;101558.53;4932326;29;20078;-77
2023/04/25 11:01:46;;;;;;;8.05;1.90;;;;;;;9.06;64.99;101559.47;4902661;29;20111;-78
2023/04/25 11:04:22;;;;;;;7.85;1.80;;;;;;;8.93;66.48;101563.94;4903816;29;20045;-78
2023/04/25 11:07:06;;;;;;;7.85;1.95;;;;;;;8.86;66.02;101569.25;4912169;29;20072;-79
2023/04/25 11:09:40;;;;;;;8.45;1.67;;;;;;;8.93;70.12;101573.63;4925399;29;20040;-79
2023/04/25 11:12:08;;;;;;;6.47;1.83;;;;;;;8.86;64.64;101562.19;4917717;29;20380;-79
2023/04/25 11:14:33;;;;;;;9.93;2.22;;;;;;;8.86;62.25;101571.88;4917473;29;20028;-80
2023/04/25 11:17:01;;;;;;;8.93;2.00;;;;;;;8.81;64.42;101578.03;4900523;29;20399;-80
2023/04/25 11:19:28;;;;;;;6.20;1.58;;;;;;;8.81;62.63;101574.53;4909351;29;20032;-79
2023/04/25 11:21:59;;;;;;;10.13;1.85;;;;;;;8.86;62.06;101583.31;4914112;29;20377;-80
2023/04/25 11:24:35;;;;;;;5.90;1.65;;;;;;;8.94;61.48;101578.00;4917299;29;20039;-79
2023/04/25 11:27:02;;;;;;;4.78;1.33;;;;;;;9.03;58.26;101581.50;4905529;29;20028;-80
2023/04/25 11:29:32;;;;;;;8.68;1.67;;;;;;;9.06;58.24;101583.25;4898430;29;20024;-80
2023/04/25 11:31:58;;;;;;;7.57;2.28;;;;;;;9.09;58.84;101585.00;4923717;29;20046;-80
2023/04/25 11:34:25;;;;;;;8.57;2.20;;;;;;;9.16;59.36;101577.03;4916233;29;20111;-80
2023/04/25 11:36:52;;;;;;;10.27;1.77;;;;;;;9.41;59.67;101569.00;4908366;29;20040;-80
2023/04/25 11:39:21;;;;;;;5.88;1.50;;;;;;;9.85;58.29;101574.00;4910341;29;20399;-80